Time;durP1;ratioP1;P1;durP2;ratioP2;P2;SDS_P1;SDS_P2;PMS_P1;PMS_P2;Temp;Humidity;BMP_temperature;BMP_pressure;BME280_temperature;BME280_humidity;BME280_pressure;Samples;Min_cycle;Max_cycle;Signal;HPM_P1;HPM_P2
2021/11/09 00:01:49;;;;;;;12.30;9.25;;;22.30;46.30;;;;;;5223843;28;20047;-54
2021/11/09 00:04:27;;;;;;;11.88;8.32;;;22.30;46.30;;;;;;5220945;28;20044;-56
2021/11/09 00:07:24;;;;;;;14.10;8.98;;;22.20;46.30;;;;;;5221732;28;20396;-55
2021/11/09 00:09:57;;;;;;;15.07;9.20;;;22.20;46.40;;;;;;5228545;28;20059;-55
2021/11/09 00:12:36;;;;;;;13.32;9.73;;;22.20;46.60;;;;;;5202208;28;21358;-54
2021/11/09 00:15:15;;;;;;;13.32;8.30;;;22.20;46.70;;;;;;5226972;28;20803;-52
2021/11/09 00:17:50;;;;;;;12.00;8.13;;;22.20;46.60;;;;;;5220729;28;20043;-55
2021/11/09 00:20:26;;;;;;;13.23;8.80;;;22.20;46.60;;;;;;5220390;28;20350;-51
2021/11/09 00:23:00;;;;;;;13.18;8.98;;;22.20;46.70;;;;;;5223696;28;20051;-55
2021/11/09 00:25:35;;;;;;;11.88;7.80;;;22.30;46.80;;;;;;5261986;28;20708;-55
2021/11/09 00:28:09;;;;;;;12.50;7.90;;;22.20;46.60;;;;;;5224043;28;20711;-54
2021/11/09 00:30:43;;;;;;;13.20;8.93;;;22.20;46.70;;;;;;5227285;28;20467;-55
2021/11/09 00:33:16;;;;;;;14.25;7.90;;;22.20;46.40;;;;;;5198766;28;20052;-55
2021/11/09 00:35:49;;;;;;;13.07;7.70;;;22.20;46.50;;;;;;5209678;28;20055;-54
2021/11/09 00:38:22;;;;;;;9.48;6.95;;;22.20;46.50;;;;;;5227507;28;20388;-52
2021/11/09 00:40:58;;;;;;;12.93;7.72;;;22.20;46.30;;;;;;5219385;28;20036;-54
2021/11/09 00:43:32;;;;;;;13.80;7.60;;;22.20;47.00;;;;;;5223210;28;20183;-56
2021/11/09 00:46:04;;;;;;;11.30;7.28;;;22.20;46.20;;;;;;5224138;28;20083;-54
2021/11/09 00:48:37;;;;;;;11.95;7.20;;;22.20;46.30;;;;;;5228777;28;20056;-54
2021/11/09 00:51:10;;;;;;;11.45;7.40;;;22.20;46.50;;;;;;5226760;28;20048;-54
2021/11/09 00:53:42;;;;;;;10.47;6.83;;;22.20;46.00;;;;;;5230854;28;26321;-51
2021/11/09 00:56:15;;;;;;;14.02;7.28;;;22.20;46.20;;;;;;5205979;28;20571;-52
2021/11/09 00:58:47;;;;;;;11.15;6.63;;;22.20;46.10;;;;;;5224515;28;20059;-52
2021/11/09 01:01:20;;;;;;;8.17;6.57;;;22.20;46.20;;;;;;5211933;28;20430;-56
2021/11/09 01:03:53;;;;;;;15.20;7.27;;;22.10;46.10;;;;;;5234075;28;20044;-53
2021/11/09 01:06:26;;;;;;;11.93;7.45;;;22.10;46.20;;;;;;5243105;28;20823;-55
2021/11/09 01:08:59;;;;;;;10.55;6.85;;;22.10;46.20;;;;;;5234560;28;20574;-56
2021/11/09 01:11:32;;;;;;;10.32;6.97;;;22.20;46.30;;;;;;5205075;28;20059;-55
2021/11/09 01:14:06;;;;;;;11.65;6.78;;;22.10;46.30;;;;;;5214269;28;20039;-56
2021/11/09 01:16:39;;;;;;;13.00;6.68;;;22.10;46.30;;;;;;5225491;28;20966;-56
2021/11/09 01:19:13;;;;;;;;;;;22.10;46.20;;;;;;5227886;28;20067;-56
2021/11/09 01:21:46;;;;;;;9.55;6.68;;;22.10;46.30;;;;;;5217053;28;19927;-55
2021/11/09 01:24:19;;;;;;;8.30;6.18;;;22.10;46.40;;;;;;5227463;28;21675;-53
2021/11/09 01:26:52;;;;;;;10.95;5.97;;;22.10;46.50;;;;;;5238577;28;20503;-54
2021/11/09 01:29:24;;;;;;;9.52;6.18;;;22.10;46.40;;;;;;5228721;28;20044;-56
2021/11/09 01:31:57;;;;;;;7.13;5.70;;;22.10;46.40;;;;;;5221597;28;20505;-53
2021/11/09 01:34:30;;;;;;;9.87;5.93;;;22.10;46.30;;;;;;5239433;28;20514;-55
2021/11/09 01:37:03;;;;;;;8.77;6.18;;;22.10;46.30;;;;;;5246087;28;20078;-54
2021/11/09 01:39:35;;;;;;;8.65;6.15;;;22.00;46.20;;;;;;5241745;28;20052;-55
2021/11/09 01:42:09;;;;;;;8.90;5.97;;;22.00;46.30;;;;;;5243657;28;20678;-55
2021/11/09 01:44:42;;;;;;;8.82;5.88;;;22.00;46.30;;;;;;5230828;28;20059;-58
2021/11/09 01:47:15;;;;;;;12.20;5.60;;;22.00;46.30;;;;;;5246111;28;20988;-55
2021/11/09 01:49:47;;;;;;;;;;;22.00;46.30;;;;;;5240037;28;20035;-57
2021/11/09 01:52:20;;;;;;;8.52;5.45;;;22.00;46.30;;;;;;5243271;28;20750;-56
2021/11/09 01:54:53;;;;;;;10.15;5.28;;;22.00;46.40;;;;;;5241344;28;20474;-56
2021/11/09 01:57:25;;;;;;;7.78;5.32;;;22.00;46.40;;;;;;5239408;28;20055;-55
2021/11/09 02:00:03;;;;;;;10.90;5.70;;;22.00;46.40;;;;;;5248871;28;20043;-56
2021/11/09 02:02:46;;;;;;;11.18;5.53;;;22.00;46.40;;;;;;5246683;28;20978;-53
2021/11/09 02:05:20;;;;;;;7.30;4.80;;;22.00;46.40;;;;;;5250719;28;20415;-56
2021/11/09 02:07:55;;;;;;;8.35;5.30;;;22.00;46.30;;;;;;5228696;28;20070;-57
2021/11/09 02:10:31;;;;;;;7.55;5.38;;;22.00;46.40;;;;;;5214811;28;20050;-53
2021/11/09 02:13:04;;;;;;;8.05;5.20;;;22.00;46.40;;;;;;5253968;28;20566;-53
2021/11/09 02:15:38;;;;;;;7.85;5.25;;;22.00;47.00;;;;;;5211813;28;20575;-54
2021/11/09 02:18:13;;;;;;;12.68;5.32;;;22.00;46.40;;;;;;5246043;28;20054;-53
2021/11/09 02:21:12;;;;;;;8.07;4.97;;;22.00;46.40;;;;;;5231661;28;20046;-56
2021/11/09 02:23:46;;;;;;;8.35;5.22;;;22.00;46.30;;;;;;5225831;28;20048;-56
2021/11/09 02:26:22;;;;;;;6.22;4.50;;;22.00;46.10;;;;;;5232699;28;20056;-55
2021/11/09 02:28:57;;;;;;;8.43;4.80;;;22.00;46.30;;;;;;5212336;28;20678;-55
2021/11/09 02:31:30;;;;;;;6.70;4.70;;;21.90;46.20;;;;;;5231951;28;20059;-56
2021/11/09 02:34:03;;;;;;;6.32;4.55;;;21.90;46.10;;;;;;5249910;27;20056;-56
2021/11/09 02:36:35;;;;;;;7.03;5.05;;;21.90;46.10;;;;;;5247931;28;20507;-53
2021/11/09 02:39:08;;;;;;;10.43;4.73;;;21.90;46.10;;;;;;5246556;28;20055;-55
2021/11/09 02:41:41;;;;;;;6.88;4.30;;;21.90;46.10;;;;;;5244747;28;20035;-56
2021/11/09 02:44:13;;;;;;;7.28;4.55;;;21.90;46.10;;;;;;5239787;28;20039;-54
2021/11/09 02:46:51;;;;;;;7.88;4.82;;;21.90;46.10;;;;;;5241160;28;20635;-55
2021/11/09 02:49:30;;;;;;;10.88;4.95;;;21.90;46.10;;;;;;5250290;28;21215;-56
2021/11/09 02:52:07;;;;;;;8.52;5.18;;;21.90;46.00;;;;;;5213329;28;20082;-54
2021/11/09 02:54:43;;;;;;;6.43;4.57;;;21.90;46.00;;;;;;5251035;28;20515;-53
2021/11/09 02:57:24;;;;;;;6.57;4.43;;;21.90;45.70;;;;;;5245442;28;20048;-56
2021/11/09 03:07:54;;;;;;;9.07;4.20;;;21.90;45.80;;;;;;5243736;28;20043;-49
2021/11/09 03:10:31;;;;;;;6.45;3.92;;;21.90;45.70;;;;;;5240065;28;20746;-54
2021/11/09 03:13:05;;;;;;;9.10;4.28;;;21.90;45.50;;;;;;5222920;28;20059;-51
2021/11/09 03:15:38;;;;;;;7.28;4.45;;;21.90;45.60;;;;;;5243151;28;20234;-53
2021/11/09 03:18:16;;;;;;;5.50;3.60;;;21.90;45.60;;;;;;5252304;27;20056;-51
2021/11/09 03:44:10;;;;;;;6.65;3.47;;;21.90;45.40;;;;;;5217811;28;20052;-55
2021/11/09 03:46:32;;;;;;;5.55;3.67;;;21.80;45.40;;;;;;5224106;28;21636;-51
2021/11/09 03:49:06;;;;;;;9.52;4.07;;;21.80;45.40;;;;;;5216676;28;21167;-55
2021/11/09 03:51:39;;;;;;;5.78;3.80;;;21.80;45.30;;;;;;5208080;28;20039;-52
2021/11/09 03:54:15;;;;;;;7.07;3.60;;;21.80;45.30;;;;;;5194004;28;20060;-53
2021/11/09 03:56:52;;;;;;;5.07;3.55;;;21.80;45.10;;;;;;5205846;28;21583;-53
2021/11/09 04:02:23;;;;;;;5.95;3.50;;;21.80;45.40;;;;;;5191953;28;20118;-49
2021/11/09 04:05:00;;;;;;;5.55;2.97;;;21.80;45.60;;;;;;5223802;28;20516;-54
2021/11/09 04:18:42;;;;;;;7.43;3.17;;;21.90;46.30;;;;;;5224527;28;20211;-55
2021/11/09 04:24:18;;;;;;;9.85;3.35;;;21.90;46.80;;;;;;5215097;28;20067;-53
2021/11/09 04:30:14;;;;;;;4.50;2.95;;;21.90;46.70;;;;;;5198474;27;20330;-50
2021/11/09 04:33:25;;;;;;;5.53;3.33;;;21.90;46.90;;;;;;5221949;28;20059;-54
2021/11/09 04:37:03;;;;;;;6.43;3.47;;;21.90;46.80;;;;;;5229921;28;20265;-52
2021/11/09 05:10:03;;;;;;;5.47;3.22;;;22.10;48.20;;;;;;5213876;28;20058;-55
2021/11/09 05:12:36;;;;;;;8.73;3.35;;;22.10;48.10;;;;;;5218977;28;20932;-52
2021/11/09 05:15:08;;;;;;;8.55;2.90;;;22.10;48.10;;;;;;5216996;28;20051;-51
2021/11/09 05:17:41;;;;;;;7.75;3.28;;;22.10;48.10;;;;;;5219877;28;20055;-48
2021/11/09 05:20:13;;;;;;;8.95;3.60;;;22.10;48.20;;;;;;5223599;28;21485;-52
2021/11/09 05:22:49;;;;;;;9.13;3.03;;;22.10;48.20;;;;;;5217871;28;20047;-54
2021/11/09 05:25:22;;;;;;;8.05;2.92;;;22.10;48.30;;;;;;5200562;28;20052;-54
2021/11/09 05:27:57;;;;;;;12.15;2.80;;;22.10;48.30;;;;;;5233913;28;20043;-52
2021/11/09 05:30:29;;;;;;;7.75;3.20;;;22.10;48.30;;;;;;5236395;28;20122;-54
2021/11/09 05:33:02;;;;;;;13.77;2.97;;;22.10;48.40;;;;;;5216391;28;20668;-59
2021/11/09 05:35:35;;;;;;;8.52;3.30;;;22.10;48.40;;;;;;5219346;28;20223;-53
2021/11/09 05:38:09;;;;;;;7.40;3.10;;;22.10;48.40;;;;;;5195627;28;20956;-50
2021/11/09 05:40:51;;;;;;;7.95;3.30;;;22.20;48.50;;;;;;5223367;28;20059;-54
2021/11/09 05:43:25;;;;;;;7.68;2.60;;;22.20;48.50;;;;;;5219459;28;20354;-51
2021/11/09 05:45:57;;;;;;;12.93;3.10;;;22.20;48.40;;;;;;5218568;28;20835;-54
2021/11/09 05:48:30;;;;;;;9.45;3.28;;;22.20;48.50;;;;;;5216014;28;20051;-55
2021/11/09 05:51:04;;;;;;;7.63;3.40;;;22.30;48.60;;;;;;5215338;28;20062;-53
2021/11/09 05:53:36;;;;;;;11.82;2.80;;;22.30;48.50;;;;;;5213359;28;20052;-54
2021/11/09 05:56:09;;;;;;;11.63;3.10;;;22.30;48.60;;;;;;5184591;28;20059;-53
2021/11/09 05:58:42;;;;;;;13.75;3.22;;;22.30;48.50;;;;;;5212319;28;21285;-53
2021/11/09 06:01:15;;;;;;;8.35;2.80;;;22.30;48.70;;;;;;5207186;28;20526;-53
2021/11/09 06:03:47;;;;;;;11.60;3.30;;;22.30;48.90;;;;;;5215012;28;20768;-55
2021/11/09 06:06:20;;;;;;;19.77;3.83;;;22.40;48.50;;;;;;5215044;28;20055;-53
2021/11/09 06:08:52;;;;;;;14.43;3.57;;;22.40;49.40;;;;;;5224341;28;20654;-53
2021/11/09 06:11:25;;;;;;;9.80;3.15;;;22.40;49.30;;;;;;5220730;28;20070;-54
2021/11/09 06:13:57;;;;;;;17.27;3.83;;;22.40;49.30;;;;;;5218688;28;20678;-54
2021/11/09 06:16:30;;;;;;;16.73;3.35;;;22.40;49.40;;;;;;5177037;28;20479;-54
2021/11/09 06:19:04;;;;;;;12.63;4.13;;;22.40;49.40;;;;;;5224706;28;25668;-55
2021/11/09 06:21:36;;;;;;;18.02;3.35;;;22.40;49.30;;;;;;5221701;28;20044;-53
2021/11/09 06:24:09;;;;;;;27.35;4.97;;;22.50;49.30;;;;;;5234134;28;20058;-54
2021/11/09 06:26:41;;;;;;;22.05;4.30;;;22.40;49.40;;;;;;5232307;28;20051;-51
2021/11/09 06:29:14;;;;;;;20.30;3.63;;;22.50;49.50;;;;;;5195670;28;20047;-55
2021/11/09 06:31:49;;;;;;;7.90;3.83;;;22.50;49.50;;;;;;5227323;28;20055;-53
2021/11/09 06:34:21;;;;;;;15.80;3.88;;;22.50;49.60;;;;;;5218161;28;20043;-55
2021/11/09 06:36:54;;;;;;;16.75;3.50;;;22.50;49.50;;;;;;5231227;28;20043;-50
2021/11/09 06:39:27;;;;;;;17.03;4.37;;;22.50;49.40;;;;;;5261008;28;21204;-56
2021/11/09 06:42:00;;;;;;;13.45;2.95;;;22.50;49.40;;;;;;5249638;28;20052;-50
2021/11/09 06:44:32;;;;;;;10.48;3.80;;;22.50;49.30;;;;;;5257454;28;20044;-54
2021/11/09 06:47:05;;;;;;;14.20;4.03;;;22.60;49.30;;;;;;5265000;28;20043;-55
2021/11/09 06:49:38;;;;;;;9.85;3.58;;;22.60;49.30;;;;;;5266563;28;20074;-51
2021/11/09 06:52:13;;;;;;;9.73;3.70;;;22.50;49.20;;;;;;5233989;28;20059;-52
2021/11/09 06:54:46;;;;;;;12.38;4.10;;;22.50;49.10;;;;;;5265522;28;20503;-55
2021/11/09 06:57:38;;;;;;;10.30;3.55;;;22.60;49.10;;;;;;5268225;27;20062;-53
2021/11/09 07:00:14;;;;;;;11.00;3.33;;;22.50;49.00;;;;;;5246988;28;20114;-51
2021/11/09 07:02:47;;;;;;;12.60;3.92;;;22.60;49.00;;;;;;5267626;27;20047;-51
2021/11/09 07:05:21;;;;;;;12.23;4.00;;;22.60;49.10;;;;;;5219055;28;20047;-55
2021/11/09 07:07:54;;;;;;;9.35;3.78;;;22.60;49.10;;;;;;5267477;28;20048;-54
2021/11/09 07:10:27;;;;;;;7.23;3.30;;;22.60;49.00;;;;;;5261164;28;20047;-54
2021/11/09 07:12:59;;;;;;;8.10;3.35;;;22.60;49.00;;;;;;5246513;28;20308;-56
2021/11/09 07:15:32;;;;;;;10.93;3.67;;;22.60;48.90;;;;;;5272668;28;20054;-54
2021/11/09 07:18:05;;;;;;;9.43;4.33;;;22.60;48.90;;;;;;5276714;28;20070;-55
2021/11/09 07:20:37;;;;;;;8.33;3.60;;;22.60;48.90;;;;;;5269265;28;20286;-52
2021/11/09 07:23:10;;;;;;;8.40;3.63;;;22.60;48.90;;;;;;5263401;28;20526;-54
2021/11/09 07:25:43;;;;;;;13.20;4.22;;;22.60;48.80;;;;;;5260964;28;20091;-55
2021/11/09 07:28:16;;;;;;;13.13;3.47;;;22.60;48.90;;;;;;5268197;28;20044;-56
2021/11/09 07:30:59;;;;;;;11.70;3.83;;;22.70;48.90;;;;;;5264690;28;20051;-53
2021/11/09 07:33:32;;;;;;;10.77;3.97;;;22.60;48.80;;;;;;5249733;28;20050;-56
2021/11/09 07:36:04;;;;;;;9.32;3.47;;;22.60;48.80;;;;;;5254687;28;20050;-53
2021/11/09 07:38:37;;;;;;;9.52;3.38;;;22.60;48.80;;;;;;5235843;28;21227;-53
2021/11/09 07:41:10;;;;;;;10.13;4.10;;;22.60;48.80;;;;;;5254536;27;20032;-55
2021/11/09 07:43:42;;;;;;;9.67;3.10;;;22.70;48.90;;;;;;5241963;28;20054;-53
2021/11/09 07:46:15;;;;;;;6.80;3.60;;;22.70;48.90;;;;;;5267440;28;20040;-55
2021/11/09 07:48:49;;;;;;;8.60;3.50;;;22.70;48.90;;;;;;5254573;28;20046;-56
2021/11/09 07:51:21;;;;;;;7.32;3.65;;;22.70;48.90;;;;;;5255000;28;20415;-55
2021/11/09 07:53:57;;;;;;;6.32;3.28;;;22.70;48.90;;;;;;5270246;28;20048;-55
2021/11/09 07:56:32;;;;;;;8.50;3.70;;;22.70;48.80;;;;;;5270594;28;20066;-53
2021/11/09 08:01:48;;;;;;;8.20;3.28;;;22.70;48.80;;;;;;5266210;28;20051;-54
2021/11/09 08:07:18;;;;;;;5.60;3.03;;;22.70;48.80;;;;;;5256685;28;20420;-54
2021/11/09 08:09:51;;;;;;;7.78;3.47;;;22.70;48.70;;;;;;5274508;28;20047;-53
2021/11/09 08:12:24;;;;;;;6.95;3.15;;;22.70;48.70;;;;;;5273569;28;20055;-54
2021/11/09 08:14:57;;;;;;;8.55;3.17;;;22.70;48.70;;;;;;5257347;28;20059;-52
2021/11/09 08:17:29;;;;;;;8.13;3.88;;;22.70;48.70;;;;;;5273798;28;20050;-50
2021/11/09 08:20:02;;;;;;;8.73;3.40;;;22.70;48.70;;;;;;5257170;28;20055;-53
2021/11/09 08:22:34;;;;;;;8.90;3.30;;;22.70;48.70;;;;;;5256478;28;20036;-53
2021/11/09 08:25:07;;;;;;;8.45;3.25;;;22.70;48.70;;;;;;5253194;28;20040;-53
2021/11/09 08:27:40;;;;;;;8.93;3.42;;;22.70;48.60;;;;;;5256450;28;20047;-56
2021/11/09 08:30:12;;;;;;;4.83;2.93;;;22.70;48.60;;;;;;5256932;28;20051;-53
2021/11/09 08:32:47;;;;;;;6.30;3.60;;;22.70;48.60;;;;;;5267438;28;20047;-56
2021/11/09 08:35:24;;;;;;;6.57;3.05;;;22.70;48.60;;;;;;5268689;28;20052;-55
2021/11/09 08:37:56;;;;;;;4.95;3.20;;;22.70;48.60;;;;;;5273300;28;20516;-56
2021/11/09 08:40:29;;;;;;;4.53;2.80;;;22.70;48.60;;;;;;5269356;28;20043;-56
2021/11/09 08:43:02;;;;;;;4.95;3.00;;;22.70;48.60;;;;;;5252858;28;20051;-55
2021/11/09 08:45:39;;;;;;;4.95;2.97;;;22.70;48.60;;;;;;5271204;28;20047;-55
2021/11/09 08:48:15;;;;;;;6.25;2.88;;;22.70;48.60;;;;;;5269969;28;20155;-54
2021/11/09 08:50:53;;;;;;;9.27;3.28;;;22.70;48.60;;;;;;5273051;28;20547;-52
2021/11/09 08:53:35;;;;;;;6.60;2.97;;;22.70;48.60;;;;;;5253154;28;20051;-50
2021/11/09 09:06:51;;;;;;;5.18;3.08;;;22.70;48.60;;;;;;5270776;28;20542;-54
2021/11/09 09:09:23;;;;;;;5.10;2.35;;;22.70;48.60;;;;;;5253258;28;20126;-56
2021/11/09 09:11:56;;;;;;;5.95;3.20;;;22.80;48.60;;;;;;5270555;28;20087;-52
2021/11/09 09:14:28;;;;;;;6.10;2.60;;;22.80;48.70;;;;;;5271030;28;20070;-51
2021/11/09 09:17:02;;;;;;;6.38;2.40;;;22.80;48.60;;;;;;5271528;28;20051;-54
2021/11/09 09:19:41;;;;;;;4.95;2.83;;;22.80;48.60;;;;;;5268101;28;20044;-53
2021/11/09 09:22:15;;;;;;;4.68;2.58;;;22.80;48.60;;;;;;5268397;28;20050;-52
2021/11/09 09:33:08;;;;;;;3.42;2.50;;;22.80;48.60;;;;;;5271114;28;20043;-53
2021/11/09 09:52:09;;;;;;;5.03;2.70;;;22.80;48.60;;;;;;5270593;28;20050;-53
2021/11/09 09:55:40;;;;;;;5.05;2.75;;;22.80;48.70;;;;;;5270371;28;20557;-54
2021/11/09 09:58:13;;;;;;;4.40;2.30;;;22.80;48.70;;;;;;5270838;28;20040;-56
2021/11/09 10:00:46;;;;;;;5.30;2.65;;;22.80;48.70;;;;;;5270200;28;20055;-56
2021/11/09 10:03:30;;;;;;;3.97;2.60;;;22.80;48.70;;;;;;5272714;28;20039;-55
2021/11/09 10:06:04;;;;;;;3.22;2.10;;;22.80;48.70;;;;;;5271648;28;20120;-54
2021/11/09 10:08:46;;;;;;;;;;;22.80;49.30;;;;;;5272962;28;20496;-56
2021/11/09 10:11:33;;;;;;;4.40;2.55;;;22.80;48.70;;;;;;5265096;28;19927;-51
2021/11/09 10:14:07;;;;;;;3.63;2.00;;;22.80;48.70;;;;;;5262431;28;20051;-56
2021/11/09 10:16:41;;;;;;;3.75;2.30;;;22.80;48.70;;;;;;5262717;28;20389;-55
2021/11/09 10:19:32;;;;;;;3.88;2.50;;;22.80;48.70;;;;;;5258031;28;20055;-55
2021/11/09 10:22:26;;;;;;;4.45;2.50;;;22.80;48.70;;;;;;5264983;28;20040;-55
2021/11/09 10:25:02;;;;;;;4.25;2.58;;;22.80;48.70;;;;;;5262877;28;20035;-56
2021/11/09 10:27:36;;;;;;;3.28;2.05;;;22.80;48.70;;;;;;5267664;27;20032;-55
2021/11/09 10:30:12;;;;;;;5.63;2.20;;;22.80;48.70;;;;;;5265560;28;20860;-53
2021/11/09 10:32:46;;;;;;;3.60;2.10;;;22.90;48.70;;;;;;5269434;28;20051;-55
2021/11/09 10:35:20;;;;;;;3.45;2.25;;;22.90;48.70;;;;;;5270508;28;20047;-55
2021/11/09 10:37:55;;;;;;;5.20;2.50;;;23.00;48.70;;;;;;5268615;28;20047;-54
2021/11/09 10:40:33;;;;;;;4.85;2.42;;;23.00;48.70;;;;;;5259324;28;20063;-54
2021/11/09 10:43:10;;;;;;;6.35;2.75;;;23.00;48.70;;;;;;5270649;28;20047;-55
2021/11/09 10:45:43;;;;;;;3.85;2.40;;;23.00;48.70;;;;;;5268541;28;20055;-54
2021/11/09 10:48:19;;;;;;;3.92;2.30;;;23.10;48.90;;;;;;5261617;28;20687;-57
2021/11/09 10:50:57;;;;;;;3.17;2.35;;;23.10;49.00;;;;;;5270223;28;20046;-56
2021/11/09 10:53:53;;;;;;;3.83;2.20;;;23.10;48.90;;;;;;5267844;28;20039;-54
2021/11/09 10:56:44;;;;;;;3.67;2.10;;;23.20;48.90;;;;;;5267270;28;20126;-57
2021/11/09 10:59:23;;;;;;;3.90;2.17;;;23.20;48.80;;;;;;5237306;28;20063;-55
2021/11/09 11:04:50;;;;;;;4.40;2.10;;;23.40;48.60;;;;;;5269774;28;20059;-57
2021/11/09 11:07:23;;;;;;;3.03;1.83;;;23.40;48.40;;;;;;5247724;28;20043;-57
2021/11/09 11:10:00;;;;;;;2.47;2.15;;;23.50;48.40;;;;;;5260546;28;20051;-57
2021/11/09 11:12:32;;;;;;;2.28;2.00;;;23.60;48.30;;;;;;5261042;28;20055;-57
2021/11/09 11:15:11;;;;;;;3.03;2.10;;;23.70;48.20;;;;;;5263569;28;20059;-56
2021/11/09 11:17:45;;;;;;;5.57;2.30;;;23.80;48.10;;;;;;5263517;28;20051;-55
2021/11/09 11:20:18;;;;;;;3.25;1.95;;;23.90;48.10;;;;;;5249358;28;20044;-56
2021/11/09 11:22:51;;;;;;;4.28;2.22;;;24.00;47.90;;;;;;5269750;28;20118;-56
2021/11/09 11:25:24;;;;;;;3.22;2.05;;;24.10;47.80;;;;;;5271265;28;20051;-58
2021/11/09 11:27:57;;;;;;;3.15;2.00;;;24.20;47.80;;;;;;5277275;28;20074;-55
2021/11/09 11:30:30;;;;;;;2.85;2.03;;;24.30;47.60;;;;;;5251404;28;20052;-55
2021/11/09 11:33:02;;;;;;;3.33;1.95;;;24.40;48.10;;;;;;5274937;28;20048;-55
2021/11/09 11:35:35;;;;;;;2.90;2.00;;;24.50;47.40;;;;;;5253917;28;20044;-56
2021/11/09 11:38:09;;;;;;;4.15;2.17;;;24.50;47.30;;;;;;5273087;28;20510;-52
2021/11/09 11:40:43;;;;;;;4.30;1.83;;;24.60;47.20;;;;;;5262105;28;20051;-50
2021/11/09 11:43:42;;;;;;;3.65;1.95;;;24.60;47.10;;;;;;5264185;28;20403;-54
2021/11/09 11:46:16;;;;;;;3.90;1.98;;;24.60;47.00;;;;;;5263559;28;20486;-54
2021/11/09 11:49:03;;;;;;;3.38;1.98;;;24.70;47.10;;;;;;5272716;28;20404;-54
2021/11/09 11:51:38;;;;;;;4.35;1.88;;;24.70;47.10;;;;;;5275260;28;20047;-56
2021/11/09 11:54:16;;;;;;;2.60;1.83;;;24.70;47.10;;;;;;5274089;28;20044;-54
2021/11/09 11:56:51;;;;;;;8.05;1.90;;;24.60;47.00;;;;;;5277109;28;20530;-53
2021/11/09 11:59:24;;;;;;;3.28;1.77;;;24.60;47.10;;;;;;5271677;28;20103;-53
2021/11/09 12:01:57;;;;;;;5.07;2.03;;;24.60;47.10;;;;;;5276886;28;20063;-55
2021/11/09 12:04:36;;;;;;;5.15;2.13;;;24.60;47.20;;;;;;5275186;28;20048;-54
2021/11/09 12:07:19;;;;;;;3.95;1.88;;;24.50;47.10;;;;;;5273135;28;20051;-56
2021/11/09 12:10:05;;;;;;;3.72;1.70;;;24.50;47.20;;;;;;5272472;28;20044;-56
2021/11/09 12:12:38;;;;;;;4.38;2.03;;;24.50;47.20;;;;;;5268145;28;20066;-54
2021/11/09 12:15:10;;;;;;;2.55;1.83;;;24.50;47.30;;;;;;5272704;28;20058;-51
2021/11/09 12:17:44;;;;;;;3.65;1.77;;;24.50;47.30;;;;;;5274118;28;20052;-53
2021/11/09 12:20:17;;;;;;;2.70;2.00;;;24.40;47.30;;;;;;5240203;28;20040;-53
2021/11/09 12:22:52;;;;;;;3.25;1.90;;;24.40;47.30;;;;;;5243578;28;20070;-55
2021/11/09 12:25:24;;;;;;;5.28;2.20;;;24.40;47.30;;;;;;5252107;28;20527;-50
2021/11/09 12:28:10;;;;;;;6.60;1.90;;;24.40;46.90;;;;;;5256333;28;20040;-50
2021/11/09 12:30:47;;;;;;;4.30;2.10;;;24.40;47.20;;;;;;5233795;28;20079;-53
2021/11/09 12:33:30;;;;;;;4.90;2.35;;;24.40;47.10;;;;;;5245156;28;20059;-52
2021/11/09 12:36:22;;;;;;;3.67;1.98;;;24.60;46.90;;;;;;5244948;28;20047;-55
2021/11/09 12:38:56;;;;;;;5.25;2.05;;;24.90;46.50;;;;;;5263396;28;20082;-51
2021/11/09 12:41:32;;;;;;;5.18;1.98;;;25.00;46.30;;;;;;5258614;28;20055;-54
2021/11/09 12:44:07;;;;;;;3.92;1.77;;;25.20;46.10;;;;;;5245688;28;20052;-56
2021/11/09 12:46:41;;;;;;;5.43;1.67;;;25.50;45.60;;;;;;5263045;28;20393;-54
2021/11/09 12:49:17;;;;;;;3.88;1.75;;;25.20;45.80;;;;;;5257841;28;20055;-52
2021/11/09 12:51:54;;;;;;;4.60;1.98;;;25.00;46.10;;;;;;5250836;28;20048;-53
2021/11/09 12:54:29;;;;;;;3.15;1.83;;;25.00;46.30;;;;;;5258251;28;20463;-53
2021/11/09 12:57:06;;;;;;;5.30;1.98;;;25.00;46.30;;;;;;5258913;28;20044;-52
2021/11/09 13:02:23;;;;;;;3.63;1.63;;;24.70;46.70;;;;;;5244908;28;20067;-55
2021/11/09 13:05:08;;;;;;;4.93;1.63;;;24.70;46.90;;;;;;5257659;28;20064;-50
2021/11/09 13:07:45;;;;;;;3.67;2.10;;;24.60;47.10;;;;;;5257844;28;20051;-51
2021/11/09 13:10:21;;;;;;;4.90;2.70;;;24.50;47.40;;;;;;5246891;28;20044;-49
2021/11/09 13:12:54;;;;;;;10.90;3.30;;;24.90;47.10;;;;;;5241455;28;20772;-52
2021/11/09 13:15:27;;;;;;;10.15;3.40;;;26.20;44.50;;;;;;5242066;28;20052;-54
2021/11/09 13:18:04;;;;;;;5.75;3.00;;;27.10;42.50;;;;;;5242944;28;20047;-52
2021/11/09 13:20:48;;;;;;;14.68;3.50;;;27.60;40.90;;;;;;5239794;28;20613;-56
2021/11/09 13:23:23;;;;;;;6.45;3.33;;;28.00;40.00;;;;;;5245578;28;20476;-54
2021/11/09 13:25:57;;;;;;;8.77;3.17;;;28.10;39.40;;;;;;5240277;28;20039;-54
2021/11/09 13:28:38;;;;;;;8.65;3.08;;;28.00;39.60;;;;;;5230822;28;20051;-54
2021/11/09 13:31:13;;;;;;;11.38;3.78;;;27.40;40.90;;;;;;5248091;28;20063;-48
2021/11/09 13:33:49;;;;;;;17.23;3.30;;;26.90;42.30;;;;;;5244695;28;20079;-53
2021/11/09 13:36:22;;;;;;;12.60;3.00;;;26.40;43.50;;;;;;5254060;28;20047;-51
2021/11/09 13:38:57;;;;;;;9.70;2.00;;;26.10;44.70;;;;;;5223395;28;20051;-52
2021/11/09 13:41:31;;;;;;;13.95;2.90;;;25.80;45.60;;;;;;5240272;28;20039;-51
2021/11/09 13:44:10;;;;;;;12.30;3.10;;;25.70;46.30;;;;;;5229506;28;20044;-56
2021/11/09 13:46:45;;;;;;;15.00;5.68;;;25.50;46.80;;;;;;5228156;28;22514;-52
2021/11/09 13:49:20;;;;;;;11.85;4.60;;;25.40;43.60;;;;;;5228367;28;20611;-50
2021/11/09 13:51:58;;;;;;;15.18;3.72;;;25.30;43.90;;;;;;5250632;28;20625;-49
2021/11/09 13:54:35;;;;;;;13.02;3.28;;;25.10;44.70;;;;;;5244889;28;20182;-50
2021/11/09 13:57:10;;;;;;;15.80;3.83;;;25.00;45.50;;;;;;5245326;28;20059;-56
2021/11/09 13:59:43;;;;;;;15.20;3.33;;;24.90;46.20;;;;;;5240223;28;20044;-52
2021/11/09 14:02:37;;;;;;;18.33;3.77;;;24.90;46.70;;;;;;5254539;28;20035;-54
2021/11/09 14:05:33;;;;;;;12.63;3.50;;;24.90;46.80;;;;;;5249163;28;20289;-49
2021/11/09 14:16:37;;;;;;;13.55;2.72;;;24.60;47.60;;;;;;5254648;28;20827;-51
2021/11/09 14:19:14;;;;;;;8.02;2.67;;;24.60;47.80;;;;;;5255594;28;20447;-54
2021/11/09 14:21:46;;;;;;;8.75;2.50;;;24.50;47.90;;;;;;5235098;28;20475;-54
2021/11/09 14:24:22;;;;;;;15.88;2.97;;;24.50;48.00;;;;;;5249041;28;20048;-52
2021/11/09 14:27:11;;;;;;;8.95;2.72;;;24.50;48.10;;;;;;5254781;28;20048;-54
2021/11/09 14:29:53;;;;;;;7.43;2.83;;;24.40;48.30;;;;;;5246988;28;20048;-57
2021/11/09 14:32:32;;;;;;;13.93;2.67;;;24.40;48.40;;;;;;5241727;28;20054;-55
2021/11/09 14:38:04;;;;;;;18.27;3.15;;;24.30;48.60;;;;;;5253530;28;20051;-49
2021/11/09 14:40:54;;;;;;;5.88;2.60;;;24.20;48.80;;;;;;5256986;28;20078;-53
2021/11/09 14:43:37;;;;;;;12.98;2.95;;;24.20;49.00;;;;;;5256165;28;20059;-51
2021/11/09 14:46:13;;;;;;;7.18;2.47;;;24.20;49.00;;;;;;5236339;28;20055;-55
2021/11/09 14:54:14;;;;;;;13.52;3.42;;;24.10;49.40;;;;;;5271551;28;20400;-53
2021/11/09 14:56:47;;;;;;;7.65;2.47;;;24.10;49.40;;;;;;5258937;28;20054;-49
2021/11/09 14:59:19;;;;;;;6.45;2.22;;;24.00;49.50;;;;;;5240223;28;20058;-53
2021/11/09 15:02:03;;;;;;;9.97;2.87;;;24.00;49.50;;;;;;5256778;28;20369;-49
2021/11/09 15:04:52;;;;;;;6.57;2.53;;;24.00;49.60;;;;;;5238684;28;20035;-50
2021/11/09 15:12:50;;;;;;;7.97;1.98;;;23.90;49.80;;;;;;5262446;28;20051;-56
2021/11/09 15:29:58;;;;;;;8.73;2.42;;;23.80;49.50;;;;;;5253985;28;20405;-54
2021/11/09 15:32:36;;;;;;;7.95;2.33;;;23.80;49.50;;;;;;5257820;28;20043;-53
2021/11/09 15:35:10;;;;;;;11.35;2.15;;;23.70;49.40;;;;;;5257569;28;20048;-54
2021/11/09 15:38:03;;;;;;;10.45;2.15;;;23.80;49.40;;;;;;5215581;28;20055;-56
2021/11/09 15:40:35;;;;;;;7.82;2.70;;;23.70;49.40;;;;;;5245715;28;20047;-55
2021/11/09 15:43:07;;;;;;;6.22;2.30;;;23.70;49.40;;;;;;5233859;28;21444;-52
2021/11/09 15:45:40;;;;;;;4.28;2.42;;;23.70;49.40;;;;;;5260691;28;20044;-53
2021/11/09 15:48:12;;;;;;;4.80;1.93;;;23.70;49.40;;;;;;5262652;28;20427;-54
2021/11/09 15:50:45;;;;;;;7.03;2.45;;;23.70;49.40;;;;;;5251203;28;20032;-53
2021/11/09 15:53:18;;;;;;;6.88;2.88;;;23.70;49.40;;;;;;5249937;28;20054;-55
2021/11/09 15:55:51;;;;;;;4.75;2.30;;;23.60;49.40;;;;;;5266962;28;20532;-52
2021/11/09 15:58:24;;;;;;;7.88;2.95;;;23.60;49.40;;;;;;5259443;28;20047;-55
2021/11/09 16:00:56;;;;;;;6.85;2.40;;;23.60;49.30;;;;;;5250896;28;20078;-55
2021/11/09 16:03:29;;;;;;;4.50;1.80;;;23.60;49.40;;;;;;5234217;28;20044;-55
2021/11/09 16:06:03;;;;;;;3.28;1.90;;;23.60;49.40;;;;;;5256172;28;20480;-53
2021/11/09 16:08:36;;;;;;;6.88;1.85;;;23.50;49.40;;;;;;5261768;28;20050;-55
2021/11/09 16:11:11;;;;;;;11.93;2.95;;;23.50;49.40;;;;;;5238956;28;20044;-54
2021/11/09 16:13:44;;;;;;;9.27;2.55;;;23.50;49.40;;;;;;5254118;28;20196;-54
2021/11/09 16:16:16;;;;;;;8.80;2.20;;;23.60;49.50;;;;;;5254738;28;20047;-54